sensor_id;sensor_type;location;lat;lon;timestamp;temperature;humidity
33255;DHT22;19623;52.482;9.762;2022-08-06T00:00:38;12.40;99.90
33255;DHT22;19623;52.482;9.762;2022-08-06T00:03:04;12.50;99.90
33255;DHT22;19623;52.482;9.762;2022-08-06T00:05:30;12.40;99.90
33255;DHT22;19623;52.482;9.762;2022-08-06T00:07:55;12.50;99.90
33255;DHT22;19623;52.482;9.762;2022-08-06T00:10:23;12.40;99.90
33255;DHT22;19623;52.482;9.762;2022-08-06T00:12:49;12.40;99.90
33255;DHT22;19623;52.482;9.762;2022-08-06T00:15:15;12.30;99.90
33255;DHT22;19623;52.482;9.762;2022-08-06T00:17:44;12.30;99.90
33255;DHT22;19623;52.482;9.762;2022-08-06T00:20:14;12.30;99.90
33255;DHT22;19623;52.482;9.762;2022-08-06T00:22:41;12.30;99.90
33255;DHT22;19623;52.482;9.762;2022-08-06T00:25:08;12.20;99.90
33255;DHT22;19623;52.482;9.762;2022-08-06T00:27:36;12.20;99.90
33255;DHT22;19623;52.482;9.762;2022-08-06T00:30:03;12.10;99.90
33255;DHT22;19623;52.482;9.762;2022-08-06T00:32:30;12.10;99.90
33255;DHT22;19623;52.482;9.762;2022-08-06T00:34:55;12.20;99.90
33255;DHT22;19623;52.482;9.762;2022-08-06T00:37:21;12.10;99.90
33255;DHT22;19623;52.482;9.762;2022-08-06T00:39:46;12.00;99.90
33255;DHT22;19623;52.482;9.762;2022-08-06T00:42:12;12.00;99.90
33255;DHT22;19623;52.482;9.762;2022-08-06T00:44:38;11.90;99.90
33255;DHT22;19623;52.482;9.762;2022-08-06T00:47:04;11.80;99.90
33255;DHT22;19623;52.482;9.762;2022-08-06T00:49:29;11.70;99.90
33255;DHT22;19623;52.482;9.762;2022-08-06T00:51:55;11.60;99.90
33255;DHT22;19623;52.482;9.762;2022-08-06T00:54:21;11.60;99.90
33255;DHT22;19623;52.482;9.762;2022-08-06T00:56:46;11.50;99.90
33255;DHT22;19623;52.482;9.762;2022-08-06T00:59:12;11.40;99.90
33255;DHT22;19623;52.482;9.762;2022-08-06T01:01:38;11.50;99.90
33255;DHT22;19623;52.482;9.762;2022-08-06T01:04:04;11.50;99.90
33255;DHT22;19623;52.482;9.762;2022-08-06T01:06:30;11.70;99.90
33255;DHT22;19623;52.482;9.762;2022-08-06T01:08:56;11.70;99.90
33255;DHT22;19623;52.482;9.762;2022-08-06T01:11:21;11.70;99.90
33255;DHT22;19623;52.482;9.762;2022-08-06T01:13:47;11.70;99.90
33255;DHT22;19623;52.482;9.762;2022-08-06T01:21:53;11.60;99.90
33255;DHT22;19623;52.482;9.762;2022-08-06T01:29:56;11.40;99.90
33255;DHT22;19623;52.482;9.762;2022-08-06T01:32:35;11.30;99.90
33255;DHT22;19623;52.482;9.762;2022-08-06T01:35:07;11.30;99.90
33255;DHT22;19623;52.482;9.762;2022-08-06T01:40:32;11.20;99.90
33255;DHT22;19623;52.482;9.762;2022-08-06T01:42:58;11.20;99.90
33255;DHT22;19623;52.482;9.762;2022-08-06T01:45:29;11.20;99.90
33255;DHT22;19623;52.482;9.762;2022-08-06T01:48:01;11.20;99.90
33255;DHT22;19623;52.482;9.762;2022-08-06T01:50:34;11.10;99.90
33255;DHT22;19623;52.482;9.762;2022-08-06T01:53:03;11.10;99.90
33255;DHT22;19623;52.482;9.762;2022-08-06T01:55:31;11.00;99.90
33255;DHT22;19623;52.482;9.762;2022-08-06T01:58:01;11.00;99.90
33255;DHT22;19623;52.482;9.762;2022-08-06T02:00:29;10.90;99.90
33255;DHT22;19623;52.482;9.762;2022-08-06T02:02:58;10.90;99.90
33255;DHT22;19623;52.482;9.762;2022-08-06T02:05:25;10.90;99.90
33255;DHT22;19623;52.482;9.762;2022-08-06T02:07:52;10.80;99.90
33255;DHT22;19623;52.482;9.762;2022-08-06T02:10:21;10.90;99.90
33255;DHT22;19623;52.482;9.762;2022-08-06T02:12:48;10.80;99.90
33255;DHT22;19623;52.482;9.762;2022-08-06T02:15:26;10.80;99.90
33255;DHT22;19623;52.482;9.762;2022-08-06T02:17:56;10.80;99.90
33255;DHT22;19623;52.482;9.762;2022-08-06T02:20:32;10.70;99.90
33255;DHT22;19623;52.482;9.762;2022-08-06T02:22:59;10.90;99.90
33255;DHT22;19623;52.482;9.762;2022-08-06T02:25:26;11.00;99.90
33255;DHT22;19623;52.482;9.762;2022-08-06T02:27:54;11.00;99.90
33255;DHT22;19623;52.482;9.762;2022-08-06T02:30:21;11.00;99.90
33255;DHT22;19623;52.482;9.762;2022-08-06T02:32:48;11.00;99.90
33255;DHT22;19623;52.482;9.762;2022-08-06T02:35:14;11.10;99.90
33255;DHT22;19623;52.482;9.762;2022-08-06T02:37:52;11.10;99.90
33255;DHT22;19623;52.482;9.762;2022-08-06T02:40:31;11.10;99.90
33255;DHT22;19623;52.482;9.762;2022-08-06T02:43:22;11.10;99.90
33255;DHT22;19623;52.482;9.762;2022-08-06T02:46:52;11.00;99.90
33255;DHT22;19623;52.482;9.762;2022-08-06T02:48:51;10.90;99.90
33255;DHT22;19623;52.482;9.762;2022-08-06T02:51:27;10.80;99.90
33255;DHT22;19623;52.482;9.762;2022-08-06T02:54:04;10.80;99.90
33255;DHT22;19623;52.482;9.762;2022-08-06T02:56:32;10.90;99.90
33255;DHT22;19623;52.482;9.762;2022-08-06T02:59:00;11.00;99.90
33255;DHT22;19623;52.482;9.762;2022-08-06T03:01:36;10.90;99.90
33255;DHT22;19623;52.482;9.762;2022-08-06T03:04:04;11.00;99.90
33255;DHT22;19623;52.482;9.762;2022-08-06T03:06:33;11.00;99.90
33255;DHT22;19623;52.482;9.762;2022-08-06T03:09:01;11.00;99.90
33255;DHT22;19623;52.482;9.762;2022-08-06T03:11:30;11.00;99.90
33255;DHT22;19623;52.482;9.762;2022-08-06T03:14:01;10.80;99.90
33255;DHT22;19623;52.482;9.762;2022-08-06T03:16:29;10.70;99.90
33255;DHT22;19623;52.482;9.762;2022-08-06T03:18:56;10.60;99.90
33255;DHT22;19623;52.482;9.762;2022-08-06T03:21:23;10.60;99.90
33255;DHT22;19623;52.482;9.762;2022-08-06T03:23:50;10.60;99.90
33255;DHT22;19623;52.482;9.762;2022-08-06T03:26:17;10.60;99.90
33255;DHT22;19623;52.482;9.762;2022-08-06T03:28:44;10.60;99.90
33255;DHT22;19623;52.482;9.762;2022-08-06T03:31:11;10.50;99.90
33255;DHT22;19623;52.482;9.762;2022-08-06T03:33:37;10.50;99.90
33255;DHT22;19623;52.482;9.762;2022-08-06T03:36:04;10.50;99.90
33255;DHT22;19623;52.482;9.762;2022-08-06T03:38:37;10.50;99.90
33255;DHT22;19623;52.482;9.762;2022-08-06T03:41:04;10.40;99.90
33255;DHT22;19623;52.482;9.762;2022-08-06T03:43:30;10.40;99.90
33255;DHT22;19623;52.482;9.762;2022-08-06T03:46:01;10.40;99.90
33255;DHT22;19623;52.482;9.762;2022-08-06T03:48:31;10.40;99.90
33255;DHT22;19623;52.482;9.762;2022-08-06T03:50:57;10.40;99.90
33255;DHT22;19623;52.482;9.762;2022-08-06T03:53:27;10.30;99.90
33255;DHT22;19623;52.482;9.762;2022-08-06T03:55:57;10.30;99.90
33255;DHT22;19623;52.482;9.762;2022-08-06T03:58:25;10.30;99.90
33255;DHT22;19623;52.482;9.762;2022-08-06T04:00:59;10.40;99.90
33255;DHT22;19623;52.482;9.762;2022-08-06T04:03:25;10.40;99.90
33255;DHT22;19623;52.482;9.762;2022-08-06T04:05:52;10.40;99.90
33255;DHT22;19623;52.482;9.762;2022-08-06T04:08:19;10.50;99.90
33255;DHT22;19623;52.482;9.762;2022-08-06T04:10:47;10.60;99.90
33255;DHT22;19623;52.482;9.762;2022-08-06T04:13:19;10.50;99.90
33255;DHT22;19623;52.482;9.762;2022-08-06T04:15:46;10.60;99.90
33255;DHT22;19623;52.482;9.762;2022-08-06T04:18:17;10.70;99.90
33255;DHT22;19623;52.482;9.762;2022-08-06T04:20:46;10.70;99.90
33255;DHT22;19623;52.482;9.762;2022-08-06T04:23:12;10.70;99.90
33255;DHT22;19623;52.482;9.762;2022-08-06T04:25:45;10.60;99.90
33255;DHT22;19623;52.482;9.762;2022-08-06T04:28:12;10.70;99.90
33255;DHT22;19623;52.482;9.762;2022-08-06T04:30:39;10.70;99.90
33255;DHT22;19623;52.482;9.762;2022-08-06T04:33:09;10.80;99.90
33255;DHT22;19623;52.482;9.762;2022-08-06T04:35:38;10.70;99.90
33255;DHT22;19623;52.482;9.762;2022-08-06T04:38:06;10.60;99.90
33255;DHT22;19623;52.482;9.762;2022-08-06T04:40:32;10.50;99.90
33255;DHT22;19623;52.482;9.762;2022-08-06T04:42:58;10.60;99.90
33255;DHT22;19623;52.482;9.762;2022-08-06T04:45:25;10.70;99.90
33255;DHT22;19623;52.482;9.762;2022-08-06T04:47:52;10.70;99.90
33255;DHT22;19623;52.482;9.762;2022-08-06T04:50:18;10.70;99.90
33255;DHT22;19623;52.482;9.762;2022-08-06T04:52:43;10.80;99.90
33255;DHT22;19623;52.482;9.762;2022-08-06T04:55:09;10.90;99.90
33255;DHT22;19623;52.482;9.762;2022-08-06T04:57:35;10.90;99.90
33255;DHT22;19623;52.482;9.762;2022-08-06T05:00:00;11.00;99.90
33255;DHT22;19623;52.482;9.762;2022-08-06T05:02:26;11.10;99.90
33255;DHT22;19623;52.482;9.762;2022-08-06T05:04:53;11.20;99.90
33255;DHT22;19623;52.482;9.762;2022-08-06T05:09:50;11.60;99.90
33255;DHT22;19623;52.482;9.762;2022-08-06T05:12:21;11.70;99.90
33255;DHT22;19623;52.482;9.762;2022-08-06T05:15:06;11.90;99.90
33255;DHT22;19623;52.482;9.762;2022-08-06T05:17:36;12.00;99.90
33255;DHT22;19623;52.482;9.762;2022-08-06T05:20:12;12.10;99.90
33255;DHT22;19623;52.482;9.762;2022-08-06T05:22:41;12.20;99.90
33255;DHT22;19623;52.482;9.762;2022-08-06T05:25:08;12.30;99.90
33255;DHT22;19623;52.482;9.762;2022-08-06T05:27:34;12.30;99.90
33255;DHT22;19623;52.482;9.762;2022-08-06T05:30:02;12.50;99.90
33255;DHT22;19623;52.482;9.762;2022-08-06T05:32:28;12.60;99.90
33255;DHT22;19623;52.482;9.762;2022-08-06T05:34:53;12.70;99.90
33255;DHT22;19623;52.482;9.762;2022-08-06T05:37:19;12.90;99.90
33255;DHT22;19623;52.482;9.762;2022-08-06T05:39:45;13.00;99.90
33255;DHT22;19623;52.482;9.762;2022-08-06T05:42:10;13.00;99.90
33255;DHT22;19623;52.482;9.762;2022-08-06T05:44:36;13.10;99.90
33255;DHT22;19623;52.482;9.762;2022-08-06T05:47:08;13.20;99.90
33255;DHT22;19623;52.482;9.762;2022-08-06T05:49:45;13.20;99.90
33255;DHT22;19623;52.482;9.762;2022-08-06T05:52:28;13.20;99.90
33255;DHT22;19623;52.482;9.762;2022-08-06T05:54:56;13.40;99.90
33255;DHT22;19623;52.482;9.762;2022-08-06T06:00:06;13.50;99.90
33255;DHT22;19623;52.482;9.762;2022-08-06T06:02:48;13.70;99.90
33255;DHT22;19623;52.482;9.762;2022-08-06T06:05:14;13.70;99.90
33255;DHT22;19623;52.482;9.762;2022-08-06T06:07:40;13.80;99.90
33255;DHT22;19623;52.482;9.762;2022-08-06T06:10:07;13.90;99.90
33255;DHT22;19623;52.482;9.762;2022-08-06T06:12:34;14.00;99.90
33255;DHT22;19623;52.482;9.762;2022-08-06T06:15:01;14.10;99.90
33255;DHT22;19623;52.482;9.762;2022-08-06T06:17:41;14.10;99.90
33255;DHT22;19623;52.482;9.762;2022-08-06T06:20:13;14.20;99.90
33255;DHT22;19623;52.482;9.762;2022-08-06T06:23:08;14.30;99.90
33255;DHT22;19623;52.482;9.762;2022-08-06T06:25:44;14.40;99.90
33255;DHT22;19623;52.482;9.762;2022-08-06T06:28:33;14.60;99.90
33255;DHT22;19623;52.482;9.762;2022-08-06T06:31:07;14.60;99.90
33255;DHT22;19623;52.482;9.762;2022-08-06T06:33:52;14.70;99.90
33255;DHT22;19623;52.482;9.762;2022-08-06T06:36:37;14.80;99.90
33255;DHT22;19623;52.482;9.762;2022-08-06T06:39:08;14.90;99.90
33255;DHT22;19623;52.482;9.762;2022-08-06T06:41:42;14.90;99.90
33255;DHT22;19623;52.482;9.762;2022-08-06T06:44:19;15.00;99.90
33255;DHT22;19623;52.482;9.762;2022-08-06T06:46:51;15.00;99.90
33255;DHT22;19623;52.482;9.762;2022-08-06T06:51:55;15.20;99.90
33255;DHT22;19623;52.482;9.762;2022-08-06T06:54:35;15.20;99.90
33255;DHT22;19623;52.482;9.762;2022-08-06T06:57:02;15.40;99.90
33255;DHT22;19623;52.482;9.762;2022-08-06T06:59:41;15.50;99.90
33255;DHT22;19623;52.482;9.762;2022-08-06T07:02:16;15.60;99.90
33255;DHT22;19623;52.482;9.762;2022-08-06T07:04:43;15.70;99.90
33255;DHT22;19623;52.482;9.762;2022-08-06T07:07:11;15.70;99.90
33255;DHT22;19623;52.482;9.762;2022-08-06T07:09:38;15.80;99.90
33255;DHT22;19623;52.482;9.762;2022-08-06T07:12:05;15.80;99.90
33255;DHT22;19623;52.482;9.762;2022-08-06T07:14:34;15.90;99.90
33255;DHT22;19623;52.482;9.762;2022-08-06T07:17:02;16.00;99.90
33255;DHT22;19623;52.482;9.762;2022-08-06T07:19:28;16.00;99.90
33255;DHT22;19623;52.482;9.762;2022-08-06T07:21:55;16.10;99.90
33255;DHT22;19623;52.482;9.762;2022-08-06T07:24:23;16.20;99.90
33255;DHT22;19623;52.482;9.762;2022-08-06T07:26:51;16.40;99.90
33255;DHT22;19623;52.482;9.762;2022-08-06T07:29:18;16.40;99.90
33255;DHT22;19623;52.482;9.762;2022-08-06T07:31:46;16.50;99.90
33255;DHT22;19623;52.482;9.762;2022-08-06T07:34:14;16.60;99.90
33255;DHT22;19623;52.482;9.762;2022-08-06T07:36:46;16.70;99.90
33255;DHT22;19623;52.482;9.762;2022-08-06T07:39:17;16.70;99.90
33255;DHT22;19623;52.482;9.762;2022-08-06T07:41:43;16.80;99.90
33255;DHT22;19623;52.482;9.762;2022-08-06T07:44:12;16.90;99.90
33255;DHT22;19623;52.482;9.762;2022-08-06T07:46:43;17.00;99.90
33255;DHT22;19623;52.482;9.762;2022-08-06T07:49:09;17.10;99.90
33255;DHT22;19623;52.482;9.762;2022-08-06T07:51:40;17.00;99.90
33255;DHT22;19623;52.482;9.762;2022-08-06T07:54:07;17.10;99.90
33255;DHT22;19623;52.482;9.762;2022-08-06T07:56:40;17.10;99.90
33255;DHT22;19623;52.482;9.762;2022-08-06T07:59:07;17.30;99.90
33255;DHT22;19623;52.482;9.762;2022-08-06T08:01:34;17.40;99.90
33255;DHT22;19623;52.482;9.762;2022-08-06T08:04:01;17.40;99.90
33255;DHT22;19623;52.482;9.762;2022-08-06T08:06:45;17.50;99.90
33255;DHT22;19623;52.482;9.762;2022-08-06T08:09:16;17.50;99.90
33255;DHT22;19623;52.482;9.762;2022-08-06T08:11:43;17.60;99.90
33255;DHT22;19623;52.482;9.762;2022-08-06T08:14:11;17.60;99.90
33255;DHT22;19623;52.482;9.762;2022-08-06T08:16:38;17.70;99.90
33255;DHT22;19623;52.482;9.762;2022-08-06T08:19:32;17.70;99.90
33255;DHT22;19623;52.482;9.762;2022-08-06T08:22:13;17.80;99.90
33255;DHT22;19623;52.482;9.762;2022-08-06T08:24:40;17.80;99.90
33255;DHT22;19623;52.482;9.762;2022-08-06T08:27:07;17.90;99.90
33255;DHT22;19623;52.482;9.762;2022-08-06T08:29:37;17.90;99.90
33255;DHT22;19623;52.482;9.762;2022-08-06T08:32:04;17.90;99.90
33255;DHT22;19623;52.482;9.762;2022-08-06T08:34:30;18.00;99.90
33255;DHT22;19623;52.482;9.762;2022-08-06T08:36:56;18.10;99.90
33255;DHT22;19623;52.482;9.762;2022-08-06T08:39:22;18.30;99.90
33255;DHT22;19623;52.482;9.762;2022-08-06T08:41:51;18.30;99.90
33255;DHT22;19623;52.482;9.762;2022-08-06T08:44:23;18.40;99.90
33255;DHT22;19623;52.482;9.762;2022-08-06T08:46:58;18.40;99.90
33255;DHT22;19623;52.482;9.762;2022-08-06T08:49:41;18.50;99.90
33255;DHT22;19623;52.482;9.762;2022-08-06T08:52:12;18.40;99.90
33255;DHT22;19623;52.482;9.762;2022-08-06T08:54:41;18.50;99.90
33255;DHT22;19623;52.482;9.762;2022-08-06T08:57:07;18.60;99.90
33255;DHT22;19623;52.482;9.762;2022-08-06T08:59:35;18.70;99.90
33255;DHT22;19623;52.482;9.762;2022-08-06T09:02:02;18.70;99.90
33255;DHT22;19623;52.482;9.762;2022-08-06T09:04:27;18.90;99.90
33255;DHT22;19623;52.482;9.762;2022-08-06T09:06:53;19.00;99.90
33255;DHT22;19623;52.482;9.762;2022-08-06T09:09:19;19.00;99.90
33255;DHT22;19623;52.482;9.762;2022-08-06T09:11:46;18.90;99.90
33255;DHT22;19623;52.482;9.762;2022-08-06T09:14:12;18.90;99.90
33255;DHT22;19623;52.482;9.762;2022-08-06T09:16:38;19.00;99.90
33255;DHT22;19623;52.482;9.762;2022-08-06T09:19:05;19.10;99.90
33255;DHT22;19623;52.482;9.762;2022-08-06T09:21:32;19.20;99.90
33255;DHT22;19623;52.482;9.762;2022-08-06T09:23:58;19.40;99.90
33255;DHT22;19623;52.482;9.762;2022-08-06T09:26:24;19.60;99.90
33255;DHT22;19623;52.482;9.762;2022-08-06T09:28:50;19.60;99.90
33255;DHT22;19623;52.482;9.762;2022-08-06T09:31:18;19.40;99.90
33255;DHT22;19623;52.482;9.762;2022-08-06T09:34:04;19.20;99.90
33255;DHT22;19623;52.482;9.762;2022-08-06T09:36:44;19.10;99.90
33255;DHT22;19623;52.482;9.762;2022-08-06T09:39:10;19.20;99.90
33255;DHT22;19623;52.482;9.762;2022-08-06T09:41:45;19.50;99.90
33255;DHT22;19623;52.482;9.762;2022-08-06T09:44:11;19.50;99.90
33255;DHT22;19623;52.482;9.762;2022-08-06T09:46:39;19.70;99.90
33255;DHT22;19623;52.482;9.762;2022-08-06T09:49:06;19.90;99.90
33255;DHT22;19623;52.482;9.762;2022-08-06T09:51:32;20.00;99.90
33255;DHT22;19623;52.482;9.762;2022-08-06T09:54:01;19.80;99.90
33255;DHT22;19623;52.482;9.762;2022-08-06T09:56:27;20.00;99.90
33255;DHT22;19623;52.482;9.762;2022-08-06T09:59:04;20.30;99.90
33255;DHT22;19623;52.482;9.762;2022-08-06T10:01:43;20.60;99.90
33255;DHT22;19623;52.482;9.762;2022-08-06T10:04:14;20.60;99.90
33255;DHT22;19623;52.482;9.762;2022-08-06T10:06:56;20.70;99.90
33255;DHT22;19623;52.482;9.762;2022-08-06T10:09:23;20.60;99.90
33255;DHT22;19623;52.482;9.762;2022-08-06T10:11:49;20.60;99.90
33255;DHT22;19623;52.482;9.762;2022-08-06T10:19:34;20.90;99.90
33255;DHT22;19623;52.482;9.762;2022-08-06T10:22:07;21.00;99.90
33255;DHT22;19623;52.482;9.762;2022-08-06T10:24:40;21.10;99.90
33255;DHT22;19623;52.482;9.762;2022-08-06T10:27:07;21.00;99.90
33255;DHT22;19623;52.482;9.762;2022-08-06T10:29:35;21.10;99.90
33255;DHT22;19623;52.482;9.762;2022-08-06T10:32:04;21.00;99.90
33255;DHT22;19623;52.482;9.762;2022-08-06T10:34:32;20.60;99.90
33255;DHT22;19623;52.482;9.762;2022-08-06T10:37:05;20.10;99.90
33255;DHT22;19623;52.482;9.762;2022-08-06T10:39:35;19.60;99.90
33255;DHT22;19623;52.482;9.762;2022-08-06T10:42:03;19.10;99.90
33255;DHT22;19623;52.482;9.762;2022-08-06T10:44:31;18.90;99.90
33255;DHT22;19623;52.482;9.762;2022-08-06T10:46:58;19.10;99.90
33255;DHT22;19623;52.482;9.762;2022-08-06T10:49:25;19.50;99.90
33255;DHT22;19623;52.482;9.762;2022-08-06T10:51:52;20.00;99.90
33255;DHT22;19623;52.482;9.762;2022-08-06T10:54:18;20.40;99.90
33255;DHT22;19623;52.482;9.762;2022-08-06T10:56:47;20.70;99.90
33255;DHT22;19623;52.482;9.762;2022-08-06T10:59:14;21.20;99.90
33255;DHT22;19623;52.482;9.762;2022-08-06T11:02:05;21.00;99.90
33255;DHT22;19623;52.482;9.762;2022-08-06T11:07:13;20.90;99.90
33255;DHT22;19623;52.482;9.762;2022-08-06T11:12:31;21.00;99.90
33255;DHT22;19623;52.482;9.762;2022-08-06T11:15:00;21.10;99.90
33255;DHT22;19623;52.482;9.762;2022-08-06T11:17:41;21.20;99.90
33255;DHT22;19623;52.482;9.762;2022-08-06T11:20:09;21.40;99.90
33255;DHT22;19623;52.482;9.762;2022-08-06T11:22:53;21.50;99.90
33255;DHT22;19623;52.482;9.762;2022-08-06T11:25:45;21.70;99.90
33255;DHT22;19623;52.482;9.762;2022-08-06T11:28:13;21.80;99.90
33255;DHT22;19623;52.482;9.762;2022-08-06T11:30:53;21.70;99.90
33255;DHT22;19623;52.482;9.762;2022-08-06T11:33:57;21.60;99.90
33255;DHT22;19623;52.482;9.762;2022-08-06T11:36:09;21.60;99.90
33255;DHT22;19623;52.482;9.762;2022-08-06T11:41:23;21.80;99.90
33255;DHT22;19623;52.482;9.762;2022-08-06T11:49:34;22.30;99.90
33255;DHT22;19623;52.482;9.762;2022-08-06T11:52:01;22.50;99.90
33255;DHT22;19623;52.482;9.762;2022-08-06T11:54:31;22.90;99.90
33255;DHT22;19623;52.482;9.762;2022-08-06T11:59:39;23.00;99.90
33255;DHT22;19623;52.482;9.762;2022-08-06T12:02:11;22.50;99.90
33255;DHT22;19623;52.482;9.762;2022-08-06T12:07:29;21.60;99.90
33255;DHT22;19623;52.482;9.762;2022-08-06T12:10:08;21.20;99.90
33255;DHT22;19623;52.482;9.762;2022-08-06T12:12:38;21.30;99.90
33255;DHT22;19623;52.482;9.762;2022-08-06T12:20:41;22.00;99.90
33255;DHT22;19623;52.482;9.762;2022-08-06T12:23:10;22.10;99.90
33255;DHT22;19623;52.482;9.762;2022-08-06T12:25:38;22.30;99.90
33255;DHT22;19623;52.482;9.762;2022-08-06T12:28:05;22.40;99.90
33255;DHT22;19623;52.482;9.762;2022-08-06T12:30:50;22.50;99.90
33255;DHT22;19623;52.482;9.762;2022-08-06T12:33:17;22.60;99.90
33255;DHT22;19623;52.482;9.762;2022-08-06T12:35:53;22.70;99.90
33255;DHT22;19623;52.482;9.762;2022-08-06T12:38:20;22.70;99.90
33255;DHT22;19623;52.482;9.762;2022-08-06T12:40:54;22.50;99.90
33255;DHT22;19623;52.482;9.762;2022-08-06T12:43:20;22.50;99.90
33255;DHT22;19623;52.482;9.762;2022-08-06T12:45:46;22.50;99.90
33255;DHT22;19623;52.482;9.762;2022-08-06T12:48:12;22.40;99.90
33255;DHT22;19623;52.482;9.762;2022-08-06T12:50:40;22.40;99.90
33255;DHT22;19623;52.482;9.762;2022-08-06T12:53:12;22.50;99.90
33255;DHT22;19623;52.482;9.762;2022-08-06T12:55:46;22.50;99.90
33255;DHT22;19623;52.482;9.762;2022-08-06T12:58:14;22.40;99.90
33255;DHT22;19623;52.482;9.762;2022-08-06T13:00:41;22.40;99.90
33255;DHT22;19623;52.482;9.762;2022-08-06T13:03:08;22.40;99.90
33255;DHT22;19623;52.482;9.762;2022-08-06T13:05:35;22.30;99.90
33255;DHT22;19623;52.482;9.762;2022-08-06T13:08:01;22.10;99.90
33255;DHT22;19623;52.482;9.762;2022-08-06T13:10:27;21.90;99.90
33255;DHT22;19623;52.482;9.762;2022-08-06T13:12:56;21.80;99.90
33255;DHT22;19623;52.482;9.762;2022-08-06T13:15:24;21.80;99.90
33255;DHT22;19623;52.482;9.762;2022-08-06T13:18:14;22.00;99.90
33255;DHT22;19623;52.482;9.762;2022-08-06T13:20:42;22.00;99.90
33255;DHT22;19623;52.482;9.762;2022-08-06T13:23:09;22.10;99.90
33255;DHT22;19623;52.482;9.762;2022-08-06T13:25:44;22.30;99.90
33255;DHT22;19623;52.482;9.762;2022-08-06T13:28:12;22.50;99.90
33255;DHT22;19623;52.482;9.762;2022-08-06T13:30:40;22.80;99.90
33255;DHT22;19623;52.482;9.762;2022-08-06T13:33:16;23.00;99.90
33255;DHT22;19623;52.482;9.762;2022-08-06T13:35:46;23.30;99.90
33255;DHT22;19623;52.482;9.762;2022-08-06T13:38:32;23.70;99.90
33255;DHT22;19623;52.482;9.762;2022-08-06T13:40:58;23.80;99.90
33255;DHT22;19623;52.482;9.762;2022-08-06T13:43:37;23.70;99.90
33255;DHT22;19623;52.482;9.762;2022-08-06T13:46:05;23.60;99.90
33255;DHT22;19623;52.482;9.762;2022-08-06T13:48:31;23.50;99.90
33255;DHT22;19623;52.482;9.762;2022-08-06T13:50:57;23.50;99.90
33255;DHT22;19623;52.482;9.762;2022-08-06T13:53:22;23.40;99.90
33255;DHT22;19623;52.482;9.762;2022-08-06T13:55:48;23.40;99.90
33255;DHT22;19623;52.482;9.762;2022-08-06T13:58:13;23.40;99.90
33255;DHT22;19623;52.482;9.762;2022-08-06T14:00:39;23.40;99.90
33255;DHT22;19623;52.482;9.762;2022-08-06T14:03:06;23.50;99.90
33255;DHT22;19623;52.482;9.762;2022-08-06T14:05:32;23.60;99.90
33255;DHT22;19623;52.482;9.762;2022-08-06T14:07:58;23.60;99.90
33255;DHT22;19623;52.482;9.762;2022-08-06T14:10:23;23.60;99.90
33255;DHT22;19623;52.482;9.762;2022-08-06T14:12:50;23.70;99.90
33255;DHT22;19623;52.482;9.762;2022-08-06T14:15:35;23.60;99.90
33255;DHT22;19623;52.482;9.762;2022-08-06T14:18:00;23.30;99.90
33255;DHT22;19623;52.482;9.762;2022-08-06T14:20:27;22.90;99.90
33255;DHT22;19623;52.482;9.762;2022-08-06T14:22:53;22.60;99.90
33255;DHT22;19623;52.482;9.762;2022-08-06T14:25:20;22.60;99.90
33255;DHT22;19623;52.482;9.762;2022-08-06T14:27:45;22.80;99.90
33255;DHT22;19623;52.482;9.762;2022-08-06T14:30:12;22.80;99.90
33255;DHT22;19623;52.482;9.762;2022-08-06T14:32:38;22.80;99.90
33255;DHT22;19623;52.482;9.762;2022-08-06T14:35:04;22.80;99.90
33255;DHT22;19623;52.482;9.762;2022-08-06T14:37:31;22.90;99.90
33255;DHT22;19623;52.482;9.762;2022-08-06T14:39:56;22.90;99.90
33255;DHT22;19623;52.482;9.762;2022-08-06T14:42:22;22.90;99.90
33255;DHT22;19623;52.482;9.762;2022-08-06T14:45:06;23.00;99.90
33255;DHT22;19623;52.482;9.762;2022-08-06T14:47:32;23.10;99.90
33255;DHT22;19623;52.482;9.762;2022-08-06T14:49:58;23.10;99.90
33255;DHT22;19623;52.482;9.762;2022-08-06T14:52:24;23.00;99.90
33255;DHT22;19623;52.482;9.762;2022-08-06T14:54:51;22.90;99.90
33255;DHT22;19623;52.482;9.762;2022-08-06T14:57:17;22.80;99.90
33255;DHT22;19623;52.482;9.762;2022-08-06T14:59:44;22.80;99.90
33255;DHT22;19623;52.482;9.762;2022-08-06T15:02:10;22.90;99.90
33255;DHT22;19623;52.482;9.762;2022-08-06T15:04:37;23.00;99.90
33255;DHT22;19623;52.482;9.762;2022-08-06T15:07:03;23.20;99.90
33255;DHT22;19623;52.482;9.762;2022-08-06T15:09:28;23.20;99.90
33255;DHT22;19623;52.482;9.762;2022-08-06T15:11:55;23.20;99.90
33255;DHT22;19623;52.482;9.762;2022-08-06T15:14:20;23.20;99.90
33255;DHT22;19623;52.482;9.762;2022-08-06T15:16:46;23.40;99.90
33255;DHT22;19623;52.482;9.762;2022-08-06T15:19:12;23.10;99.90
33255;DHT22;19623;52.482;9.762;2022-08-06T15:21:37;22.80;99.90
33255;DHT22;19623;52.482;9.762;2022-08-06T15:24:03;22.60;99.90
33255;DHT22;19623;52.482;9.762;2022-08-06T15:26:29;22.90;99.90
33255;DHT22;19623;52.482;9.762;2022-08-06T15:28:54;23.20;99.90
33255;DHT22;19623;52.482;9.762;2022-08-06T15:31:20;23.40;99.90
33255;DHT22;19623;52.482;9.762;2022-08-06T15:33:46;23.80;99.90
33255;DHT22;19623;52.482;9.762;2022-08-06T15:36:12;23.90;99.90
33255;DHT22;19623;52.482;9.762;2022-08-06T15:38:38;24.10;99.90
33255;DHT22;19623;52.482;9.762;2022-08-06T15:41:04;24.00;99.90
33255;DHT22;19623;52.482;9.762;2022-08-06T15:43:30;24.00;99.90
33255;DHT22;19623;52.482;9.762;2022-08-06T15:45:56;24.10;99.90
33255;DHT22;19623;52.482;9.762;2022-08-06T15:48:26;24.40;99.90
33255;DHT22;19623;52.482;9.762;2022-08-06T15:50:53;24.40;99.90
33255;DHT22;19623;52.482;9.762;2022-08-06T15:53:19;24.50;99.90
33255;DHT22;19623;52.482;9.762;2022-08-06T15:55:45;24.60;99.90
33255;DHT22;19623;52.482;9.762;2022-08-06T15:58:11;24.40;99.90
33255;DHT22;19623;52.482;9.762;2022-08-06T16:00:38;24.20;99.90
33255;DHT22;19623;52.482;9.762;2022-08-06T16:03:06;23.80;99.90
33255;DHT22;19623;52.482;9.762;2022-08-06T16:05:32;23.50;99.90
33255;DHT22;19623;52.482;9.762;2022-08-06T16:07:58;23.50;99.90
33255;DHT22;19623;52.482;9.762;2022-08-06T16:10:24;23.70;99.90
33255;DHT22;19623;52.482;9.762;2022-08-06T16:12:51;23.80;99.90
33255;DHT22;19623;52.482;9.762;2022-08-06T16:15:17;23.80;99.90
33255;DHT22;19623;52.482;9.762;2022-08-06T16:17:43;24.00;99.90
33255;DHT22;19623;52.482;9.762;2022-08-06T16:20:09;24.10;99.90
33255;DHT22;19623;52.482;9.762;2022-08-06T16:22:35;24.00;99.90
33255;DHT22;19623;52.482;9.762;2022-08-06T16:25:01;23.70;99.90
33255;DHT22;19623;52.482;9.762;2022-08-06T16:27:26;23.40;99.90
33255;DHT22;19623;52.482;9.762;2022-08-06T16:29:52;23.00;99.90
33255;DHT22;19623;52.482;9.762;2022-08-06T16:32:18;22.80;99.90
33255;DHT22;19623;52.482;9.762;2022-08-06T16:34:44;22.70;99.90